createdAt,value
2023-03-23T15:59:05.799Z,20.10
2023-03-23T16:01:32.771Z,19.95
2023-03-23T16:04:01.813Z,20.12
2023-03-23T16:06:31.568Z,20.12
2023-03-23T16:08:59.065Z,20.14
2023-03-23T16:11:29.095Z,20.16
2023-03-23T16:13:56.200Z,20.20
2023-03-23T16:16:33.855Z,20.12
2023-03-23T16:19:00.906Z,20.05
2023-03-23T16:21:27.908Z,20.16
2023-03-23T16:23:58.484Z,20.14
2023-03-23T16:26:26.531Z,20.17
2023-03-23T16:28:55.297Z,20.11
2023-03-23T16:31:26.821Z,20.13
2023-03-23T16:33:53.574Z,20.23
2023-03-23T16:36:20.493Z,20.27
2023-03-23T16:38:49.102Z,20.33
2023-03-23T16:41:17.869Z,20.40
2023-03-23T16:43:44.666Z,20.41
2023-03-23T16:46:13.396Z,20.21
2023-03-23T16:48:40.623Z,20.21
2023-03-23T16:51:07.426Z,20.12
2023-03-23T16:53:34.212Z,20.14
2023-03-23T16:56:00.934Z,20.09
2023-03-23T16:58:28.268Z,20.11
2023-03-23T17:00:55.140Z,20.19
2023-03-23T17:03:22.728Z,20.23
2023-03-23T17:05:51.141Z,20.24
2023-03-23T17:08:19.660Z,20.23
2023-03-23T17:10:46.908Z,20.20
2023-03-23T17:13:14.190Z,20.18
2023-03-23T17:15:45.234Z,20.10
2023-03-23T17:18:14.143Z,19.99
2023-03-23T17:20:41.725Z,19.88
2023-03-23T17:23:08.536Z,19.79
2023-03-23T17:25:35.298Z,19.64
2023-03-23T17:28:05.419Z,19.61
2023-03-23T17:30:33.013Z,19.51
2023-03-23T17:33:00.180Z,19.45
2023-03-23T17:35:27.307Z,19.32
2023-03-23T17:37:54.028Z,19.18
2023-03-23T17:40:20.912Z,19.09
2023-03-23T17:42:47.624Z,19.01
2023-03-23T17:45:14.316Z,18.91
2023-03-23T17:47:41.127Z,18.70
2023-03-23T17:50:11.873Z,18.40
2023-03-23T17:52:40.277Z,18.50
2023-03-23T17:55:07.860Z,18.34
2023-03-23T17:57:35.293Z,18.27
2023-03-23T18:00:04.238Z,18.21
2023-03-23T18:02:33.992Z,18.25
2023-03-23T18:05:00.903Z,18.20
2023-03-23T18:07:27.900Z,18.02
2023-03-23T18:10:01.099Z,18.06
2023-03-23T18:12:28.019Z,17.90
2023-03-23T18:14:58.626Z,17.88
2023-03-23T18:17:26.582Z,17.87
2023-03-23T18:19:54.120Z,17.77
2023-03-23T18:22:21.058Z,17.79
2023-03-23T18:24:47.909Z,17.78
2023-03-23T18:27:15.024Z,17.79
2023-03-23T18:29:42.169Z,17.77
2023-03-23T18:32:09.207Z,17.70
2023-03-23T18:34:37.833Z,17.72
2023-03-23T18:37:04.826Z,17.68
2023-03-23T18:39:34.109Z,17.68
2023-03-23T18:42:01.341Z,17.64
2023-03-23T18:44:28.288Z,17.62
2023-03-23T18:46:55.156Z,17.57
2023-03-23T18:49:22.523Z,17.58
2023-03-23T18:51:49.392Z,17.60
2023-03-23T18:54:17.653Z,17.56
2023-03-23T18:56:44.477Z,17.32
2023-03-23T18:59:11.394Z,17.40
2023-03-23T19:01:38.423Z,17.36
2023-03-23T19:04:06.829Z,17.35
2023-03-23T19:06:34.993Z,17.35
2023-03-23T19:09:02.380Z,17.37
2023-03-23T19:11:29.570Z,17.37
2023-03-23T19:14:02.444Z,17.35
2023-03-23T19:16:32.272Z,17.30
2023-03-23T19:19:01.718Z,17.32
2023-03-23T19:21:31.498Z,17.31
2023-03-23T19:23:58.896Z,17.30
2023-03-23T19:26:33.925Z,17.27
2023-03-23T19:29:25.347Z,17.28
2023-03-23T19:31:51.853Z,17.25
2023-03-23T19:34:18.898Z,17.26
2023-03-23T19:36:54.443Z,17.24
2023-03-23T19:39:23.176Z,17.22
2023-03-23T19:41:51.196Z,17.21
2023-03-23T19:44:18.192Z,17.20
2023-03-23T19:46:45.407Z,17.17
2023-03-23T19:49:12.269Z,17.18
2023-03-23T19:51:39.789Z,17.17
2023-03-23T19:54:10.070Z,17.17
2023-03-23T19:56:37.095Z,17.17
2023-03-23T19:59:04.626Z,17.17
2023-03-23T20:01:32.038Z,17.18
2023-03-23T20:04:00.133Z,17.16
2023-03-23T20:06:29.079Z,17.16
2023-03-23T20:08:57.794Z,17.16
2023-03-23T20:11:26.741Z,17.18
2023-03-23T20:13:53.596Z,17.18
2023-03-23T20:16:20.441Z,17.20
2023-03-23T20:18:47.454Z,17.18
2023-03-23T20:21:19.803Z,17.20
2023-03-23T20:23:47.538Z,17.19
2023-03-23T20:26:21.703Z,17.17
2023-03-23T20:28:48.753Z,17.17
2023-03-23T20:31:28.013Z,17.20
2023-03-23T20:34:02.047Z,17.18
2023-03-23T20:36:35.159Z,17.18
2023-03-23T20:39:10.779Z,17.18
2023-03-23T20:41:41.458Z,17.17
2023-03-23T20:44:13.890Z,17.17
2023-03-23T20:46:42.237Z,17.14
2023-03-23T20:49:10.184Z,17.13
2023-03-23T20:51:37.471Z,17.13
2023-03-23T20:54:06.055Z,17.14
2023-03-23T20:56:34.603Z,17.10
2023-03-23T20:59:02.473Z,17.12
2023-03-23T21:01:29.429Z,17.10
2023-03-23T21:03:57.062Z,17.09
2023-03-23T21:06:28.408Z,17.11
2023-03-23T21:08:57.019Z,17.08
2023-03-23T21:11:26.018Z,17.05
2023-03-23T21:13:53.472Z,17.05
2023-03-23T21:16:20.442Z,17.00
2023-03-23T21:18:47.569Z,16.96
2023-03-23T21:21:18.338Z,16.99
2023-03-23T21:23:47.293Z,16.97
2023-03-23T21:26:17.016Z,17.00
2023-03-23T21:28:45.373Z,16.97
2023-03-23T21:31:13.534Z,16.96
2023-03-23T21:33:40.947Z,16.96
2023-03-23T21:36:07.893Z,16.94
2023-03-23T21:38:34.635Z,16.93
2023-03-23T21:41:09.197Z,16.89
2023-03-23T21:43:38.183Z,16.92
2023-03-23T21:46:06.085Z,16.91
2023-03-23T21:48:35.739Z,16.89
2023-03-23T21:51:11.629Z,16.90
2023-03-23T21:53:38.784Z,16.89
2023-03-23T21:56:07.511Z,16.85
2023-03-23T21:58:34.362Z,16.87
2023-03-23T22:01:02.445Z,16.84
2023-03-23T22:03:33.185Z,16.79
2023-03-23T22:06:09.158Z,16.72
2023-03-23T22:08:37.522Z,16.68
2023-03-23T22:11:08.252Z,16.59
2023-03-23T22:13:37.197Z,16.54
2023-03-23T22:16:07.704Z,16.50
2023-03-23T22:18:34.974Z,16.43
2023-03-23T22:21:02.335Z,16.43
2023-03-23T22:23:29.131Z,16.43
2023-03-23T22:25:56.842Z,16.40
2023-03-23T22:28:26.599Z,16.19
2023-03-23T22:30:55.609Z,16.07
2023-03-23T22:33:22.747Z,15.95
2023-03-23T22:35:50.613Z,15.91
2023-03-23T22:38:17.573Z,15.96
2023-03-23T22:40:44.715Z,16.00
2023-03-23T22:43:11.774Z,16.02
2023-03-23T22:45:38.614Z,15.95
2023-03-23T22:48:07.961Z,15.98
2023-03-23T22:50:34.972Z,16.03
2023-03-23T22:53:02.274Z,15.98
2023-03-23T22:55:29.292Z,16.03
2023-03-23T22:57:56.110Z,16.04
2023-03-23T23:00:22.976Z,16.06
2023-03-23T23:02:49.865Z,16.05
2023-03-23T23:05:16.880Z,16.02
2023-03-23T23:07:43.717Z,16.01
2023-03-23T23:10:10.524Z,15.99
2023-03-23T23:12:37.411Z,15.98
2023-03-23T23:15:05.959Z,15.93
2023-03-23T23:17:32.912Z,15.99
2023-03-23T23:20:00.287Z,15.91
2023-03-23T23:22:27.494Z,15.92
2023-03-23T23:24:54.547Z,15.94
2023-03-23T23:27:21.668Z,15.88
2023-03-23T23:29:48.851Z,15.89
2023-03-23T23:32:15.637Z,15.89
2023-03-23T23:34:42.640Z,15.88
2023-03-23T23:37:09.410Z,15.87
2023-03-23T23:39:38.473Z,15.87
2023-03-23T23:42:05.949Z,15.90
2023-03-23T23:44:32.719Z,15.87
2023-03-23T23:46:59.529Z,15.87
2023-03-23T23:49:28.749Z,15.88
2023-03-23T23:51:56.642Z,15.83
2023-03-23T23:54:30.341Z,15.77
2023-03-23T23:57:01.150Z,15.75
2023-03-23T23:59:29.205Z,15.75
